createdAt,value
2017-03-17T00:00:48.640Z,1013.17
2017-03-17T00:01:57.867Z,1013.2
2017-03-17T00:03:07.256Z,1013.16
2017-03-17T00:04:16.142Z,1013.13
2017-03-17T00:05:25.686Z,1013.1
2017-03-17T00:06:35.227Z,1013.06
2017-03-17T00:07:44.440Z,1013.04
2017-03-17T00:08:53.801Z,1013.07
2017-03-17T00:10:02.687Z,1013.12
2017-03-17T00:11:11.579Z,1013.17
2017-03-17T00:12:20.468Z,1013.25
2017-03-17T00:13:29.355Z,1013.24
2017-03-17T00:14:38.399Z,1013.16
2017-03-17T00:15:47.290Z,1013.16
2017-03-17T00:16:56.506Z,1013.09
2017-03-17T00:18:05.713Z,1013.13
2017-03-17T00:19:14.599Z,1013.1
2017-03-17T00:20:23.742Z,1013.08
2017-03-17T00:21:32.640Z,1013.07
2017-03-17T00:22:41.534Z,1013.05
2017-03-17T00:23:51.069Z,1012.98
2017-03-17T00:25:00.613Z,1012.96
2017-03-17T00:26:10.400Z,1012.97
2017-03-17T00:27:19.299Z,1012.98
2017-03-17T00:28:28.514Z,1012.97
2017-03-17T00:29:38.059Z,1012.94
2017-03-17T00:30:47.277Z,1012.97
2017-03-17T00:31:56.343Z,1012.95
2017-03-17T00:33:05.563Z,1012.99
2017-03-17T00:34:14.452Z,1012.97
2017-03-17T00:35:23.336Z,1013
2017-03-17T00:36:32.547Z,1013
2017-03-17T00:37:41.440Z,1013
2017-03-17T00:38:50.979Z,1012.99
2017-03-17T00:40:00.537Z,1013.03
2017-03-17T00:41:09.425Z,1013.03
2017-03-17T00:42:18.317Z,1012.99
2017-03-17T00:43:27.359Z,1013.02
2017-03-17T00:44:36.894Z,1012.99
2017-03-17T00:45:46.433Z,1013.03
2017-03-17T00:46:55.319Z,1012.94
2017-03-17T00:48:05.187Z,1012.94
2017-03-17T00:49:14.696Z,1012.92
2017-03-17T00:50:23.583Z,1012.92
2017-03-17T00:51:33.449Z,1012.95
2017-03-17T00:52:42.669Z,1012.97
2017-03-17T00:53:51.554Z,1012.9
2017-03-17T00:55:00.491Z,1012.88
2017-03-17T00:56:09.380Z,1012.94
2017-03-17T00:57:18.602Z,1012.99
2017-03-17T00:58:27.490Z,1012.99
2017-03-17T00:59:36.710Z,1012.98
2017-03-17T01:00:45.750Z,1012.96
2017-03-17T01:01:54.969Z,1012.93
2017-03-17T01:03:03.858Z,1012.97
2017-03-17T01:04:13.724Z,1013.03
2017-03-17T01:05:23.594Z,1013
2017-03-17T01:06:33.065Z,1013.02
2017-03-17T01:07:42.609Z,1013.02
2017-03-17T01:08:51.533Z,1013.03
2017-03-17T01:10:00.748Z,1012.99
2017-03-17T01:11:09.965Z,1012.99
2017-03-17T01:12:19.207Z,1012.97
2017-03-17T01:13:29.399Z,1013
2017-03-17T01:14:38.942Z,1012.95
2017-03-17T01:15:48.161Z,1012.89
2017-03-17T01:16:57.051Z,1012.87
2017-03-17T01:18:06.742Z,1012.8
2017-03-17T01:19:15.956Z,1012.79
2017-03-17T01:20:25.826Z,1012.76
2017-03-17T01:21:34.718Z,1012.79
2017-03-17T01:22:44.267Z,1012.73
2017-03-17T01:23:53.956Z,1012.7
2017-03-17T01:25:03.497Z,1012.68
2017-03-17T01:26:12.394Z,1012.7
2017-03-17T01:27:21.611Z,1012.69
2017-03-17T01:28:30.828Z,1012.68
2017-03-17T01:29:40.849Z,1012.68
2017-03-17T01:30:49.743Z,1012.7
2017-03-17T01:31:58.645Z,1012.73
2017-03-17T01:33:08.182Z,1012.69
2017-03-17T01:34:18.050Z,1012.66
2017-03-17T01:35:28.541Z,1012.65
2017-03-17T01:36:37.760Z,1012.68
2017-03-17T01:37:46.655Z,1012.65
2017-03-17T01:38:56.214Z,1012.6
2017-03-17T01:40:05.108Z,1012.58
2017-03-17T01:41:14.801Z,1012.65
2017-03-17T01:42:24.016Z,1012.67
2017-03-17T01:43:32.904Z,1012.68
2017-03-17T01:44:41.796Z,1012.71
2017-03-17T01:45:50.692Z,1012.7
2017-03-17T01:47:00.006Z,1012.69
2017-03-17T01:48:08.897Z,1012.67
2017-03-17T01:49:18.112Z,1012.55
2017-03-17T01:50:27.653Z,1012.58
2017-03-17T01:51:36.870Z,1012.51
2017-03-17T01:52:45.911Z,1012.53
2017-03-17T01:53:55.810Z,1012.51
2017-03-17T01:55:05.349Z,1012.47
2017-03-17T01:56:14.569Z,1012.44
2017-03-17T01:57:23.460Z,1012.41
2017-03-17T01:58:33.351Z,1012.37
2017-03-17T01:59:42.570Z,1012.36
2017-03-17T02:00:52.108Z,1012.32
2017-03-17T02:02:01.002Z,1012.29
2017-03-17T02:03:09.899Z,1012.36
2017-03-17T02:04:19.375Z,1012.35
2017-03-17T02:05:28.915Z,1012.3
2017-03-17T02:06:38.137Z,1012.26
2017-03-17T02:07:47.351Z,1012.27
2017-03-17T02:08:56.892Z,1012.23
2017-03-17T02:10:06.209Z,1012.27
2017-03-17T02:11:15.095Z,1012.31
2017-03-17T02:12:24.307Z,1012.27
2017-03-17T02:13:33.194Z,1012.28
2017-03-17T02:14:42.411Z,1012.27
2017-03-17T02:15:51.731Z,1012.26
2017-03-17T02:17:00.622Z,1012.25
2017-03-17T02:18:09.511Z,1012.19
2017-03-17T02:19:19.052Z,1012.2
2017-03-17T02:20:27.942Z,1012.24
2017-03-17T02:21:37.311Z,1012.25
2017-03-17T02:22:46.532Z,1012.21
2017-03-17T02:23:55.749Z,1012.26
2017-03-17T02:25:04.970Z,1012.26
2017-03-17T02:26:13.861Z,1012.24
2017-03-17T02:27:22.898Z,1012.25
2017-03-17T02:28:32.113Z,1012.23
2017-03-17T02:29:41.334Z,1012.22
2017-03-17T02:30:50.227Z,1012.23
2017-03-17T02:31:59.777Z,1012.24
2017-03-17T02:33:09.241Z,1012.25
2017-03-17T02:34:19.109Z,1012.27
2017-03-17T02:35:28.327Z,1012.24
2017-03-17T02:36:37.869Z,1012.23
2017-03-17T02:37:46.763Z,1012.24
2017-03-17T02:38:56.359Z,1012.27
2017-03-17T02:40:06.229Z,1012.31
2017-03-17T02:41:15.446Z,1012.27
2017-03-17T02:42:24.662Z,1012.31
2017-03-17T02:43:34.218Z,1012.31
2017-03-17T02:44:44.138Z,1012.35
2017-03-17T02:45:53.682Z,1012.36
2017-03-17T02:47:02.583Z,1012.36
2017-03-17T02:48:11.809Z,1012.35
2017-03-17T02:49:21.349Z,1012.32
2017-03-17T02:50:30.949Z,1012.32
2017-03-17T02:51:40.485Z,1012.29
2017-03-17T02:52:49.383Z,1012.26
2017-03-17T02:53:59.580Z,1012.31
2017-03-17T02:55:08.798Z,1012.27
2017-03-17T02:56:18.014Z,1012.38
2017-03-17T02:57:26.908Z,1012.31
2017-03-17T02:58:36.450Z,1012.36
2017-03-17T02:59:46.004Z,1012.34
2017-03-17T03:00:55.545Z,1012.27
2017-03-17T03:02:04.941Z,1012.29
2017-03-17T03:03:14.158Z,1012.29
2017-03-17T03:04:24.032Z,1012.31
2017-03-17T03:05:33.575Z,1012.29
2017-03-17T03:06:42.465Z,1012.34
2017-03-17T03:07:51.454Z,1012.26
2017-03-17T03:09:00.998Z,1012.3
2017-03-17T03:10:10.542Z,1012.31
2017-03-17T03:11:19.762Z,1012.34
2017-03-17T03:12:28.652Z,1012.33
2017-03-17T03:13:38.343Z,1012.31
2017-03-17T03:14:47.926Z,1012.35
2017-03-17T03:15:57.470Z,1012.33
2017-03-17T03:17:06.688Z,1012.31
2017-03-17T03:18:15.902Z,1012.3
2017-03-17T03:19:26.149Z,1012.29
2017-03-17T03:20:35.695Z,1012.28
2017-03-17T03:21:45.233Z,1012.21
2017-03-17T03:22:54.125Z,1012.29
2017-03-17T03:24:03.673Z,1012.17
2017-03-17T03:25:13.695Z,1012.2
2017-03-17T03:26:23.235Z,1012.11
2017-03-17T03:27:32.128Z,1012.08
2017-03-17T03:28:42.008Z,1012.15
2017-03-17T03:29:51.882Z,1012.15
2017-03-17T03:31:01.258Z,1012.07
2017-03-17T03:32:10.473Z,1012.03
2017-03-17T03:33:19.688Z,1012.03
2017-03-17T03:34:29.881Z,1012.03
2017-03-17T03:35:39.750Z,1011.97
2017-03-17T03:36:48.692Z,1011.96
2017-03-17T03:37:57.921Z,1011.9
2017-03-17T03:39:07.793Z,1011.96
2017-03-17T03:40:17.022Z,1011.98
2017-03-17T03:41:25.913Z,1011.96
2017-03-17T03:42:35.059Z,1012.01
2017-03-17T03:43:44.924Z,1011.93
2017-03-17T03:44:54.798Z,1011.94
2017-03-17T03:46:04.678Z,1011.93
2017-03-17T03:47:13.575Z,1011.93
2017-03-17T03:48:22.574Z,1011.95
2017-03-17T03:49:33.092Z,1011.96
2017-03-17T03:50:42.633Z,1011.94
2017-03-17T03:51:51.524Z,1011.9
2017-03-17T03:53:00.415Z,1011.91
2017-03-17T03:54:10.212Z,1011.89
2017-03-17T03:55:19.752Z,1011.82
2017-03-17T03:56:28.640Z,1011.78
2017-03-17T03:57:37.539Z,1011.81
2017-03-17T03:58:47.742Z,1011.89
2017-03-17T03:59:57.764Z,1011.88
2017-03-17T04:01:06.656Z,1011.81
2017-03-17T04:02:15.868Z,1011.83
2017-03-17T04:03:24.760Z,1011.82
2017-03-17T04:04:34.987Z,1011.87
2017-03-17T04:05:44.255Z,1011.84
2017-03-17T04:06:53.160Z,1011.87
2017-03-17T04:08:02.375Z,1011.85
2017-03-17T04:09:12.249Z,1011.88
2017-03-17T04:10:22.121Z,1011.88
2017-03-17T04:11:31.062Z,1011.88
2017-03-17T04:12:40.606Z,1011.83
2017-03-17T04:13:50.154Z,1011.92
2017-03-17T04:15:00.023Z,1011.87
2017-03-17T04:16:08.920Z,1011.85
2017-03-17T04:17:18.063Z,1011.87
2017-03-17T04:18:27.604Z,1011.85
2017-03-17T04:19:37.149Z,1011.82
2017-03-17T04:20:46.692Z,1011.85
2017-03-17T04:21:55.910Z,1011.77
2017-03-17T04:23:05.507Z,1011.82
2017-03-17T04:24:15.054Z,1011.85
2017-03-17T04:25:25.248Z,1011.88
2017-03-17T04:26:34.465Z,1011.83
2017-03-17T04:27:43.686Z,1011.79
2017-03-17T04:28:54.284Z,1011.78
2017-03-17T04:30:03.508Z,1011.81
2017-03-17T04:31:12.725Z,1011.79
2017-03-17T04:32:21.936Z,1011.71
2017-03-17T04:33:31.153Z,1011.71
2017-03-17T04:34:41.274Z,1011.74
2017-03-17T04:35:50.166Z,1011.8
2017-03-17T04:36:59.710Z,1011.8
2017-03-17T04:38:08.927Z,1011.77
2017-03-17T04:39:18.471Z,1011.75
2017-03-17T04:40:28.163Z,1011.77
2017-03-17T04:41:37.383Z,1011.76
2017-03-17T04:42:46.278Z,1011.89
2017-03-17T04:43:56.475Z,1011.75
2017-03-17T04:45:06.376Z,1011.79
2017-03-17T04:46:15.742Z,1011.76
2017-03-17T04:47:24.956Z,1011.78
2017-03-17T04:48:34.181Z,1011.73
2017-03-17T04:49:43.730Z,1011.71
2017-03-17T04:50:52.946Z,1011.77
2017-03-17T04:52:02.218Z,1011.75
2017-03-17T04:53:11.430Z,1011.74
2017-03-17T04:54:20.651Z,1011.74
2017-03-17T04:55:30.843Z,1011.76
2017-03-17T04:56:40.055Z,1011.76
2017-03-17T04:57:48.954Z,1011.81
2017-03-17T04:58:58.817Z,1011.77
2017-03-17T05:00:08.690Z,1011.74
2017-03-17T05:01:17.583Z,1011.76
2017-03-17T05:02:26.807Z,1011.81
2017-03-17T05:03:36.606Z,1011.8
2017-03-17T05:04:46.481Z,1011.73
2017-03-17T05:05:56.021Z,1011.75
2017-03-17T05:07:05.236Z,1011.76
2017-03-17T05:08:14.774Z,1011.76
2017-03-17T05:09:24.473Z,1011.77
2017-03-17T05:10:33.687Z,1011.8
2017-03-17T05:11:42.573Z,1011.74
2017-03-17T05:12:52.106Z,1011.84
2017-03-17T05:14:00.994Z,1011.76
2017-03-17T05:15:10.361Z,1011.74
2017-03-17T05:16:19.572Z,1011.71
2017-03-17T05:17:28.464Z,1011.76
2017-03-17T05:18:37.354Z,1011.68
2017-03-17T05:19:46.577Z,1011.71
2017-03-17T05:20:56.144Z,1011.65
2017-03-17T05:22:05.040Z,1011.69
2017-03-17T05:23:14.259Z,1011.76
2017-03-17T05:24:24.452Z,1011.73
2017-03-17T05:25:33.664Z,1011.73
2017-03-17T05:26:43.352Z,1011.79
2017-03-17T05:27:52.564Z,1011.84
2017-03-17T05:29:01.780Z,1011.84
2017-03-17T05:30:11.650Z,1011.84
2017-03-17T05:31:20.860Z,1011.88
2017-03-17T05:32:30.376Z,1011.84
2017-03-17T05:33:39.594Z,1011.9
2017-03-17T05:34:48.484Z,1011.93
2017-03-17T05:35:58.351Z,1011.91
2017-03-17T05:37:07.567Z,1011.95
2017-03-17T05:38:16.934Z,1011.91
2017-03-17T05:39:26.474Z,1011.91
2017-03-17T05:40:35.374Z,1011.9
2017-03-17T05:41:44.259Z,1012
2017-03-17T05:42:53.146Z,1011.97
2017-03-17T05:44:02.835Z,1011.99
2017-03-17T05:45:12.379Z,1012.01
2017-03-17T05:46:21.590Z,1012.05
2017-03-17T05:47:30.802Z,1012.06
2017-03-17T05:48:40.337Z,1012.1
2017-03-17T05:49:49.930Z,1012.16
2017-03-17T05:50:59.486Z,1012.24
2017-03-17T05:52:08.372Z,1012.2
2017-03-17T05:53:18.249Z,1012.14
2017-03-17T05:54:27.800Z,1012.15
2017-03-17T05:55:37.114Z,1012.18
2017-03-17T05:56:46.328Z,1012.27
2017-03-17T05:57:55.228Z,1012.21
2017-03-17T05:59:04.769Z,1012.21
2017-03-17T06:00:15.289Z,1012.2
2017-03-17T06:01:24.520Z,1012.28
2017-03-17T06:02:33.408Z,1012.21
2017-03-17T06:03:42.962Z,1012.28
2017-03-17T06:04:52.179Z,1012.26
2017-03-17T06:06:02.398Z,1012.24
2017-03-17T06:07:11.610Z,1012.37
2017-03-17T06:08:20.494Z,1012.31
2017-03-17T06:09:30.361Z,1012.36
2017-03-17T06:10:39.261Z,1012.37
2017-03-17T06:11:48.476Z,1012.34
2017-03-17T06:12:57.698Z,1012.34
2017-03-17T06:14:07.565Z,1012.3
2017-03-17T06:15:16.779Z,1012.4
2017-03-17T06:16:25.991Z,1012.39
2017-03-17T06:17:34.886Z,1012.39
2017-03-17T06:18:44.755Z,1012.32
2017-03-17T06:19:54.298Z,1012.36
2017-03-17T06:21:03.520Z,1012.35
2017-03-17T06:22:12.412Z,1012.38
2017-03-17T06:23:21.629Z,1012.51
2017-03-17T06:24:31.495Z,1012.45
2017-03-17T06:25:41.374Z,1012.47
2017-03-17T06:26:50.889Z,1012.47
2017-03-17T06:28:00.430Z,1012.58
2017-03-17T06:29:09.994Z,1012.57
2017-03-17T06:30:19.212Z,1012.59
2017-03-17T06:31:28.100Z,1012.6
2017-03-17T06:32:37.315Z,1012.6
2017-03-17T06:33:47.191Z,1012.65
2017-03-17T06:34:57.061Z,1012.7
2017-03-17T06:36:06.601Z,1012.7
2017-03-17T06:37:15.819Z,1012.76
2017-03-17T06:38:24.810Z,1012.78
2017-03-17T06:39:35.331Z,1012.76
2017-03-17T06:40:44.875Z,1012.83
2017-03-17T06:41:54.412Z,1012.92
2017-03-17T06:43:03.634Z,1012.9
2017-03-17T06:44:13.716Z,1012.89
2017-03-17T06:45:23.601Z,1012.84
2017-03-17T06:46:33.150Z,1012.86
2017-03-17T06:47:42.690Z,1012.86
2017-03-17T06:48:52.235Z,1012.87
2017-03-17T06:50:01.933Z,1012.88
2017-03-17T06:51:10.832Z,1012.91
2017-03-17T06:52:20.367Z,1012.91
2017-03-17T06:53:29.586Z,1012.95
2017-03-17T06:54:39.131Z,1012.95
2017-03-17T06:55:48.501Z,1012.95
2017-03-17T06:56:57.711Z,1012.97
2017-03-17T06:58:07.611Z,1012.9
2017-03-17T06:59:17.481Z,1012.98
2017-03-17T07:00:27.351Z,1012.95
2017-03-17T07:01:37.315Z,1012.93
2017-03-17T07:02:46.528Z,1012.94
2017-03-17T07:03:55.421Z,1012.96
2017-03-17T07:05:04.963Z,1012.96
2017-03-17T07:06:14.502Z,1012.94
2017-03-17T07:07:23.969Z,1013.02
2017-03-17T07:08:33.186Z,1013.06
2017-03-17T07:09:42.733Z,1013.07
2017-03-17T07:10:52.275Z,1013.08
2017-03-17T07:12:01.165Z,1013.16
2017-03-17T07:13:10.960Z,1013.14
2017-03-17T07:14:21.149Z,1013.13
2017-03-17T07:15:30.689Z,1013.11
2017-03-17T07:16:39.584Z,1013.15
2017-03-17T07:17:49.127Z,1013.1
2017-03-17T07:18:59.097Z,1013.25
2017-03-17T07:20:08.998Z,1013.13
2017-03-17T07:21:17.885Z,1013.15
2017-03-17T07:22:27.097Z,1013.21
2017-03-17T07:23:36.637Z,1013.2
2017-03-17T07:24:46.609Z,1013.26
2017-03-17T07:25:56.808Z,1013.3
2017-03-17T07:27:05.700Z,1013.3
2017-03-17T07:28:14.917Z,1013.32
2017-03-17T07:29:24.470Z,1013.36
2017-03-17T07:30:34.488Z,1013.42
2017-03-17T07:31:44.228Z,1013.38
2017-03-17T07:32:53.116Z,1013.45
2017-03-17T07:34:02.337Z,1013.46
2017-03-17T07:35:12.207Z,1013.44
2017-03-17T07:36:21.351Z,1013.45
2017-03-17T07:37:30.890Z,1013.5
2017-03-17T07:38:40.761Z,1013.43
2017-03-17T07:39:50.309Z,1013.49
2017-03-17T07:41:00.185Z,1013.54
2017-03-17T07:42:09.378Z,1013.46
2017-03-17T07:43:18.592Z,1013.32
2017-03-17T07:44:28.457Z,1013.34
2017-03-17T07:45:38.005Z,1013.42
2017-03-17T07:46:46.904Z,1013.32
2017-03-17T07:47:56.235Z,1013.35
2017-03-17T07:49:06.429Z,1013.35
2017-03-17T07:50:16.299Z,1013.44
2017-03-17T07:51:25.185Z,1013.31
2017-03-17T07:52:34.403Z,1013.35
2017-03-17T07:53:44.750Z,1013.32
2017-03-17T07:54:53.973Z,1013.31
2017-03-17T07:56:03.841Z,1013.31
2017-03-17T07:57:12.732Z,1013.29
2017-03-17T07:58:21.949Z,1013.29
2017-03-17T07:59:32.217Z,1013.24
2017-03-17T08:00:41.757Z,1013.23
2017-03-17T08:01:50.998Z,1013.15
2017-03-17T08:02:59.890Z,1013.2
2017-03-17T08:04:09.780Z,1013.23
2017-03-17T08:05:19.257Z,1013.23
2017-03-17T08:06:28.799Z,1013.23
2017-03-17T08:07:37.719Z,1013.22
2017-03-17T08:08:47.927Z,1013.27
2017-03-17T08:09:58.123Z,1013.23
2017-03-17T08:11:07.268Z,1013.23
2017-03-17T08:12:16.159Z,1013.21
2017-03-17T08:13:25.052Z,1013.17
2017-03-17T08:14:34.925Z,1013.2
2017-03-17T08:15:44.144Z,1013.15
2017-03-17T08:16:53.409Z,1013.14
2017-03-17T08:18:02.303Z,1013.13
2017-03-17T08:19:11.844Z,1013.15
2017-03-17T08:20:21.714Z,1013.16
2017-03-17T08:21:30.605Z,1013.24
2017-03-17T08:22:39.653Z,1013.1
2017-03-17T08:23:49.534Z,1013.08
2017-03-17T08:24:59.732Z,1013.06
2017-03-17T08:26:09.272Z,1013.12
2017-03-17T08:27:18.808Z,1013.06
2017-03-17T08:28:27.997Z,1013.1
2017-03-17T08:29:37.544Z,1013.17
2017-03-17T08:30:47.090Z,1013.18
2017-03-17T08:31:56.313Z,1013.16
2017-03-17T08:33:05.207Z,1013.15
2017-03-17T08:34:15.102Z,1013.15
2017-03-17T08:35:24.650Z,1013.15
2017-03-17T08:36:33.549Z,1013.25
2017-03-17T08:37:43.088Z,1013.16
2017-03-17T08:38:52.302Z,1013.21
2017-03-17T08:40:02.103Z,1013.23
2017-03-17T08:41:11.970Z,1013.31
2017-03-17T08:42:21.510Z,1013.32
2017-03-17T08:43:30.405Z,1013.28
2017-03-17T08:44:40.600Z,1013.17
2017-03-17T08:45:49.546Z,1013.14
2017-03-17T08:46:58.431Z,1013.26
2017-03-17T08:48:07.656Z,1013.08
2017-03-17T08:49:17.195Z,1013.02
2017-03-17T08:50:26.733Z,1013.05
2017-03-17T08:51:36.335Z,1013.01
2017-03-17T08:52:45.236Z,1013.03
2017-03-17T08:53:55.103Z,1013.07
2017-03-17T08:55:04.319Z,1013.1
2017-03-17T08:56:13.536Z,1013.05
2017-03-17T08:57:22.536Z,1013.05
2017-03-17T08:58:31.424Z,1013.1
2017-03-17T08:59:40.966Z,1013.35
2017-03-17T09:00:50.179Z,1013.14
2017-03-17T09:01:59.073Z,1013.15
2017-03-17T09:03:08.124Z,1012.91
2017-03-17T09:04:18.315Z,1012.88
2017-03-17T09:05:27.531Z,1012.98
2017-03-17T09:06:36.772Z,1012.89
2017-03-17T09:07:45.989Z,1012.87
2017-03-17T09:08:56.111Z,1012.85
2017-03-17T09:10:06.302Z,1012.85
2017-03-17T09:11:15.191Z,1012.78
2017-03-17T09:12:24.410Z,1012.8
2017-03-17T09:13:33.950Z,1012.9
2017-03-17T09:14:43.547Z,1012.77
2017-03-17T09:15:52.434Z,1012.76
2017-03-17T09:17:01.651Z,1012.85
2017-03-17T09:18:10.866Z,1012.88
2017-03-17T09:19:20.088Z,1013
2017-03-17T09:20:30.117Z,1012.99
2017-03-17T09:21:39.660Z,1013.09
2017-03-17T09:22:49.205Z,1012.99
2017-03-17T09:23:59.076Z,1012.94
2017-03-17T09:25:08.621Z,1013.11
2017-03-17T09:26:17.809Z,1013.06
2017-03-17T09:27:26.699Z,1012.89
2017-03-17T09:28:35.921Z,1012.96
2017-03-17T09:29:45.138Z,1012.98
2017-03-17T09:30:55.012Z,1013.04
2017-03-17T09:32:04.373Z,1013.03
2017-03-17T09:33:13.585Z,1013.03
2017-03-17T09:34:22.474Z,1013.04
2017-03-17T09:35:32.017Z,1013.04
2017-03-17T09:36:41.557Z,1013.09
2017-03-17T09:37:50.854Z,1013.06
2017-03-17T09:39:00.404Z,1013.14
2017-03-17T09:40:09.295Z,1013.22
2017-03-17T09:41:18.189Z,1013.27
2017-03-17T09:42:27.727Z,1013.27
2017-03-17T09:43:37.018Z,1013.33
2017-03-17T09:44:45.912Z,1013.45
2017-03-17T09:45:55.456Z,1013.44
2017-03-17T09:47:04.348Z,1013.35
2017-03-17T09:48:13.235Z,1013.4
2017-03-17T09:49:23.262Z,1013.27
2017-03-17T09:50:32.152Z,1013.32
2017-03-17T09:51:41.693Z,1013.28
2017-03-17T09:52:50.912Z,1013.44
2017-03-17T09:53:59.804Z,1013.17
2017-03-17T09:55:09.720Z,1013.15
2017-03-17T09:56:18.605Z,1013
2017-03-17T09:57:27.840Z,1012.89
2017-03-17T09:58:37.700Z,1013.07
2017-03-17T09:59:47.565Z,1013.05
2017-03-17T10:00:57.903Z,1013.03
2017-03-17T10:02:07.446Z,1013.18
2017-03-17T10:03:16.341Z,1013.1
2017-03-17T10:04:25.885Z,1013.11
2017-03-17T10:05:35.745Z,1013.28
2017-03-17T10:06:45.484Z,1013.07
2017-03-17T10:07:54.696Z,1013.01
2017-03-17T10:09:04.237Z,1013.04
2017-03-17T10:10:13.780Z,1013.3
2017-03-17T10:11:22.991Z,1013.26
2017-03-17T10:12:32.932Z,1013.28
2017-03-17T10:13:42.802Z,1013.27
2017-03-17T10:14:52.351Z,1013.27
2017-03-17T10:16:01.891Z,1013.42
2017-03-17T10:17:10.782Z,1013.21
2017-03-17T10:18:20.170Z,1013.18
2017-03-17T10:19:29.725Z,1013.28
2017-03-17T10:20:38.940Z,1013.21
2017-03-17T10:21:47.835Z,1013.14
2017-03-17T10:22:56.726Z,1013.12
2017-03-17T10:24:06.642Z,1013.13
2017-03-17T10:25:16.192Z,1013.06
2017-03-17T10:26:27.062Z,1013.1
2017-03-17T10:27:35.953Z,1013.08
2017-03-17T10:28:45.495Z,1013.15
2017-03-17T10:29:55.574Z,1013.18
2017-03-17T10:31:04.790Z,1013.22
2017-03-17T10:32:13.712Z,1013.19
2017-03-17T10:33:22.931Z,1013.43
2017-03-17T10:34:31.821Z,1013.17
2017-03-17T10:35:41.286Z,1013.12
2017-03-17T10:36:50.179Z,1013.13
2017-03-17T10:37:59.749Z,1013.07
2017-03-17T10:39:08.967Z,1013.08
2017-03-17T10:40:19.176Z,1013.07
2017-03-17T10:41:29.188Z,1013.16
2017-03-17T10:42:38.404Z,1013.06
2017-03-17T10:43:47.938Z,1013.1
2017-03-17T10:44:57.168Z,1013.13
2017-03-17T10:46:06.057Z,1013.06
2017-03-17T10:47:15.095Z,1013.17
2017-03-17T10:48:24.636Z,1013.03
2017-03-17T10:49:34.183Z,1012.92
2017-03-17T10:50:43.400Z,1013.03
2017-03-17T10:51:52.290Z,1012.97
2017-03-17T10:53:01.279Z,1013.02
2017-03-17T10:54:10.494Z,1013.02
2017-03-17T10:55:20.068Z,1013.03
2017-03-17T10:56:28.958Z,1013
2017-03-17T10:57:38.176Z,1012.98
2017-03-17T10:58:48.448Z,1013.01
2017-03-17T10:59:58.023Z,1013.03
2017-03-17T11:01:07.238Z,1013.06
2017-03-17T11:02:16.779Z,1013.06
2017-03-17T11:03:26.975Z,1012.97
2017-03-17T11:04:36.341Z,1013.02
2017-03-17T11:05:45.900Z,1013.01
2017-03-17T11:06:54.789Z,1013.04
2017-03-17T11:08:03.681Z,1013.05
2017-03-17T11:09:13.224Z,1013.04
2017-03-17T11:10:23.238Z,1013.03
2017-03-17T11:11:32.457Z,1013.01
2017-03-17T11:12:41.998Z,1013.05
2017-03-17T11:13:51.573Z,1013.18
2017-03-17T11:15:01.441Z,1013.09
2017-03-17T11:16:11.291Z,1013.04
2017-03-17T11:17:52.231Z,1013.02
2017-03-17T11:19:01.460Z,1013
2017-03-17T11:20:11.005Z,1013.01
2017-03-17T11:21:19.968Z,1012.95
2017-03-17T11:22:28.859Z,1012.92
2017-03-17T11:23:38.078Z,1012.9
2017-03-17T11:24:48.274Z,1012.95
2017-03-17T11:25:57.504Z,1013.04
2017-03-17T11:27:07.098Z,1012.99
2017-03-17T11:28:16.962Z,1013
2017-03-17T11:29:26.844Z,1013.06
2017-03-17T11:30:36.389Z,1012.99
2017-03-17T11:31:45.284Z,1013.04
2017-03-17T11:32:54.806Z,1013.03
2017-03-17T11:34:04.352Z,1013.14
2017-03-17T11:35:14.547Z,1013.09
2017-03-17T11:36:23.764Z,1013.04
2017-03-17T11:37:32.976Z,1013.14
2017-03-17T11:38:42.992Z,1013.06
2017-03-17T11:39:52.535Z,1013.09
2017-03-17T11:41:02.083Z,1012.96
2017-03-17T11:42:11.304Z,1012.95
2017-03-17T11:43:20.196Z,1013.05
2017-03-17T11:44:29.468Z,1013
2017-03-17T11:45:38.684Z,1013.18
2017-03-17T11:46:47.578Z,1013.11
2017-03-17T11:47:56.797Z,1013
2017-03-17T11:49:06.706Z,1013
2017-03-17T11:50:16.029Z,1013
2017-03-17T11:51:25.245Z,1012.93
2017-03-17T11:52:34.141Z,1012.86
2017-03-17T11:53:43.037Z,1012.9
2017-03-17T11:54:52.589Z,1012.94
2017-03-17T11:56:02.512Z,1012.97
2017-03-17T11:57:11.733Z,1012.89
2017-03-17T11:58:20.627Z,1012.93
2017-03-17T11:59:30.489Z,1012.82
2017-03-17T12:00:39.381Z,1012.88
2017-03-17T12:01:48.432Z,1012.88
2017-03-17T12:02:57.348Z,1012.9
2017-03-17T12:04:06.580Z,1012.86
2017-03-17T12:05:16.132Z,1012.94
2017-03-17T12:06:25.677Z,1012.86
2017-03-17T12:07:34.891Z,1012.84
2017-03-17T12:08:43.786Z,1012.76
2017-03-17T12:09:53.656Z,1012.74
2017-03-17T12:11:03.526Z,1012.83
2017-03-17T12:12:12.768Z,1012.78
2017-03-17T12:13:22.245Z,1012.69
2017-03-17T12:14:31.142Z,1012.81
2017-03-17T12:15:40.032Z,1012.72
2017-03-17T12:16:48.924Z,1012.8
2017-03-17T12:17:57.854Z,1012.71
2017-03-17T12:19:06.844Z,1012.7
2017-03-17T12:20:16.714Z,1012.8
2017-03-17T12:21:25.603Z,1012.74
2017-03-17T12:22:34.498Z,1012.71
2017-03-17T12:23:43.718Z,1012.72
2017-03-17T12:24:53.313Z,1012.73
2017-03-17T12:26:02.532Z,1012.68
2017-03-17T12:27:11.749Z,1012.67
2017-03-17T12:28:21.287Z,1012.7
2017-03-17T12:29:31.160Z,1012.64
2017-03-17T12:30:40.298Z,1012.65
2017-03-17T12:31:49.519Z,1012.61
2017-03-17T12:32:58.731Z,1012.74
2017-03-17T12:34:08.279Z,1012.71
2017-03-17T12:35:18.478Z,1012.62
2017-03-17T12:36:28.270Z,1012.57
2017-03-17T12:37:37.162Z,1012.68
2017-03-17T12:38:47.037Z,1012.52
2017-03-17T12:39:56.915Z,1012.46
2017-03-17T12:41:06.465Z,1012.59
2017-03-17T12:42:15.731Z,1012.5
2017-03-17T12:43:24.648Z,1012.54
2017-03-17T12:44:34.200Z,1012.53
2017-03-17T12:45:43.115Z,1012.51
2017-03-17T12:46:52.335Z,1012.49
2017-03-17T12:48:02.029Z,1012.47
2017-03-17T12:49:11.585Z,1012.39
2017-03-17T12:50:21.129Z,1012.47
2017-03-17T12:51:30.020Z,1012.49
2017-03-17T12:52:39.233Z,1012.41
2017-03-17T12:53:48.501Z,1012.43
2017-03-17T12:54:58.372Z,1012.47
2017-03-17T12:56:07.269Z,1012.53
2017-03-17T12:57:16.488Z,1012.49
2017-03-17T12:58:25.702Z,1012.41
2017-03-17T12:59:35.500Z,1012.48
2017-03-17T13:00:44.388Z,1012.45
2017-03-17T13:01:53.286Z,1012.46
2017-03-17T13:03:02.179Z,1012.44
2017-03-17T13:04:11.402Z,1012.45
2017-03-17T13:05:20.671Z,1012.35
2017-03-17T13:06:30.219Z,1012.38
2017-03-17T13:07:39.433Z,1012.33
2017-03-17T13:08:49.301Z,1012.39
2017-03-17T13:09:58.849Z,1012.51
2017-03-17T13:11:08.117Z,1012.32
2017-03-17T13:12:17.683Z,1012.34
2017-03-17T13:13:27.221Z,1012.28
2017-03-17T13:14:37.092Z,1012.26
2017-03-17T13:15:46.310Z,1012.29
2017-03-17T13:16:55.348Z,1012.24
2017-03-17T13:18:04.239Z,1012.34
2017-03-17T13:19:14.106Z,1012.26
2017-03-17T13:20:23.974Z,1012.33
2017-03-17T13:21:32.861Z,1012.28
2017-03-17T13:22:41.851Z,1012.27
2017-03-17T13:23:51.073Z,1012.26
2017-03-17T13:25:01.269Z,1012.29
2017-03-17T13:26:10.491Z,1012.26
2017-03-17T13:27:19.710Z,1012.28
2017-03-17T13:28:29.407Z,1012.24
2017-03-17T13:29:38.629Z,1012.21
2017-03-17T13:30:47.517Z,1012.2
2017-03-17T13:31:56.741Z,1012.15
2017-03-17T13:33:05.961Z,1012.12
2017-03-17T13:34:15.530Z,1012.1
2017-03-17T13:35:25.466Z,1012.17
2017-03-17T13:36:34.369Z,1012.17
2017-03-17T13:37:43.593Z,1012.15
2017-03-17T13:38:53.136Z,1012.2
2017-03-17T13:40:03.012Z,1012.18
2017-03-17T13:41:12.556Z,1012.15
2017-03-17T13:42:22.099Z,1012.26
2017-03-17T13:43:30.988Z,1012.18
2017-03-17T13:44:40.530Z,1012.16
2017-03-17T13:45:49.572Z,1012.26
2017-03-17T13:46:59.119Z,1012.16
2017-03-17T13:48:08.038Z,1012.15
2017-03-17T13:49:18.280Z,1012.11
2017-03-17T13:50:27.837Z,1012
2017-03-17T13:51:37.100Z,1012.15
2017-03-17T13:52:46.078Z,1012.23
2017-03-17T13:53:56.015Z,1012.08
2017-03-17T13:55:05.235Z,1012.02
2017-03-17T13:56:14.124Z,1012.26
2017-03-17T13:57:23.533Z,1012.01
2017-03-17T13:58:32.424Z,1012.04
2017-03-17T13:59:41.649Z,1012.02
2017-03-17T14:00:51.206Z,1012.09
2017-03-17T14:02:00.444Z,1012.14
2017-03-17T14:03:10.152Z,1012.01
2017-03-17T14:04:19.051Z,1012.11